createdAt,value
2022-10-23T00:01:51.843Z,11.89
2022-10-23T00:07:24.136Z,11.87
2022-10-23T00:10:05.541Z,11.87
2022-10-23T00:12:36.685Z,11.87
2022-10-23T00:15:11.914Z,11.88
2022-10-23T00:17:51.110Z,11.89
2022-10-23T00:20:38.606Z,11.87
2022-10-23T00:23:07.323Z,11.86
2022-10-23T00:25:52.517Z,11.85
2022-10-23T00:28:28.488Z,11.87
2022-10-23T00:30:59.459Z,11.88
2022-10-23T00:33:30.274Z,11.81
2022-10-23T00:36:06.397Z,11.83
2022-10-23T00:38:36.813Z,11.83
2022-10-23T00:41:18.540Z,11.83
2022-10-23T00:44:56.692Z,11.77
2022-10-23T00:47:25.632Z,11.79
2022-10-23T00:50:08.718Z,11.81
2022-10-23T00:52:47.951Z,11.82
2022-10-23T00:55:19.186Z,11.83
2022-10-23T00:57:50.933Z,11.84
2022-10-23T01:00:31.620Z,11.83
2022-10-23T01:03:05.760Z,11.83
2022-10-23T01:05:50.714Z,11.80
2022-10-23T01:08:33.886Z,11.78
2022-10-23T01:11:16.737Z,11.78
2022-10-23T01:13:59.096Z,11.78
2022-10-23T01:16:38.954Z,11.75
2022-10-23T01:19:22.504Z,11.77
2022-10-23T01:22:01.316Z,11.76
2022-10-23T01:24:55.108Z,11.73
2022-10-23T01:30:17.009Z,11.65
2022-10-23T01:33:08.033Z,11.72
2022-10-23T01:35:47.502Z,11.72
2022-10-23T01:41:18.126Z,11.70
2022-10-23T01:43:57.682Z,11.69
2022-10-23T01:46:45.391Z,11.69
2022-10-23T01:49:23.610Z,11.68
2022-10-23T01:52:10.442Z,11.69
2022-10-23T01:54:43.598Z,11.69
2022-10-23T01:57:30.345Z,11.68
2022-10-23T02:00:23.523Z,11.67
2022-10-23T02:02:54.038Z,11.66
2022-10-23T02:05:33.259Z,11.65
2022-10-23T02:08:03.775Z,11.64
2022-10-23T02:10:43.194Z,11.61
2022-10-23T02:13:35.341Z,11.64
2022-10-23T02:16:39.849Z,11.61
2022-10-23T02:19:19.380Z,11.65
2022-10-23T02:24:52.038Z,11.65
2022-10-23T02:27:40.573Z,11.66
2022-10-23T02:30:12.099Z,11.67
2022-10-23T02:32:48.852Z,11.66
2022-10-23T02:36:02.296Z,11.66
2022-10-23T02:41:43.615Z,11.63
2022-10-23T02:44:38.234Z,11.69
2022-10-23T02:47:22.543Z,11.80
2022-10-23T02:50:07.327Z,11.92
2022-10-23T02:52:45.650Z,12.03
2022-10-23T02:55:31.052Z,12.10
2022-10-23T02:58:10.887Z,12.15
2022-10-23T03:00:45.342Z,12.19
2022-10-23T03:06:26.001Z,12.12
2022-10-23T03:11:45.755Z,12.25
2022-10-23T03:14:22.161Z,12.27
2022-10-23T03:17:03.364Z,12.28
2022-10-23T03:19:34.655Z,12.25
2022-10-23T03:22:12.149Z,12.16
2022-10-23T03:24:47.645Z,12.16
2022-10-23T03:27:17.467Z,12.17
2022-10-23T03:29:59.688Z,12.18
2022-10-23T03:32:46.146Z,12.23
2022-10-23T03:35:18.121Z,12.29
2022-10-23T03:37:57.742Z,12.37
2022-10-23T03:40:26.279Z,12.34
2022-10-23T03:42:55.979Z,12.28
2022-10-23T03:45:26.687Z,12.21
2022-10-23T03:47:58.526Z,12.10
2022-10-23T03:50:27.697Z,12.07
2022-10-23T03:52:57.477Z,12.02
2022-10-23T03:58:13.002Z,11.89
2022-10-23T04:03:22.577Z,11.80
2022-10-23T04:05:55.079Z,11.79
2022-10-23T04:08:25.095Z,11.74
2022-10-23T04:10:54.151Z,11.74
2022-10-23T04:13:22.790Z,11.69
2022-10-23T04:16:07.086Z,11.68
2022-10-23T04:18:52.358Z,11.65
2022-10-23T04:21:23.749Z,11.63
2022-10-23T04:24:00.178Z,11.58
2022-10-23T04:26:29.607Z,11.57
2022-10-23T04:29:03.130Z,11.55
2022-10-23T04:31:31.989Z,11.55
2022-10-23T04:34:02.582Z,11.54
2022-10-23T04:36:31.222Z,11.50
2022-10-23T04:39:02.234Z,11.44
2022-10-23T04:41:30.906Z,11.36
2022-10-23T04:44:03.436Z,11.42
2022-10-23T04:46:33.146Z,11.39
2022-10-23T04:54:46.259Z,11.30
2022-10-23T04:57:16.544Z,11.30
2022-10-23T04:59:51.879Z,11.27
2022-10-23T05:02:34.275Z,11.28
2022-10-23T05:05:06.505Z,11.20
2022-10-23T05:07:35.029Z,11.28
2022-10-23T05:10:11.305Z,11.27
2022-10-23T05:12:51.071Z,11.28
2022-10-23T05:15:20.804Z,11.28
2022-10-23T05:17:56.908Z,11.30
2022-10-23T05:20:31.555Z,11.29
2022-10-23T05:23:16.402Z,11.29
2022-10-23T05:25:47.976Z,11.19
2022-10-23T05:28:20.876Z,11.26
2022-10-23T05:30:50.161Z,11.22
2022-10-23T05:33:22.165Z,11.22
2022-10-23T05:35:50.516Z,11.22
2022-10-23T05:38:21.766Z,11.21
2022-10-23T05:40:55.042Z,11.21
2022-10-23T05:43:23.822Z,11.19
2022-10-23T05:48:53.019Z,11.14
2022-10-23T05:51:23.712Z,11.09
2022-10-23T05:53:54.465Z,11.09
2022-10-23T05:56:27.090Z,11.09
2022-10-23T05:59:02.791Z,11.06
2022-10-23T06:01:31.449Z,11.07
2022-10-23T06:04:00.948Z,11.05
2022-10-23T06:06:35.513Z,11.06
2022-10-23T06:09:04.889Z,11.08
2022-10-23T06:11:34.636Z,11.09
2022-10-23T06:14:04.062Z,11.07
2022-10-23T06:16:50.430Z,11.11
2022-10-23T06:19:24.169Z,11.10
2022-10-23T06:21:57.956Z,11.11
2022-10-23T06:24:29.661Z,11.13
2022-10-23T06:27:02.013Z,11.14
2022-10-23T06:29:37.465Z,11.15
2022-10-23T06:32:20.981Z,11.15
2022-10-23T06:34:54.988Z,11.20
2022-10-23T06:37:46.403Z,11.22
2022-10-23T06:40:16.518Z,11.27
2022-10-23T06:42:49.462Z,11.31
2022-10-23T06:45:25.742Z,11.35
2022-10-23T06:50:40.187Z,11.41
2022-10-23T06:53:12.360Z,11.48
2022-10-23T06:58:29.858Z,11.60
2022-10-23T07:01:02.912Z,11.63
2022-10-23T07:03:39.968Z,11.69
2022-10-23T07:06:17.635Z,11.74
2022-10-23T07:08:47.830Z,11.82
2022-10-23T07:11:22.337Z,11.91
2022-10-23T07:13:53.214Z,11.94
2022-10-23T07:19:14.260Z,12.09
2022-10-23T07:21:46.221Z,12.14
2022-10-23T07:24:15.713Z,12.24
2022-10-23T07:26:45.963Z,12.30
2022-10-23T07:29:49.071Z,12.37
2022-10-23T07:32:17.364Z,12.44
2022-10-23T07:34:45.799Z,12.50
2022-10-23T07:37:16.221Z,12.49
2022-10-23T07:39:44.501Z,12.61
2022-10-23T07:42:12.830Z,12.65
2022-10-23T07:44:43.156Z,12.71
2022-10-23T07:47:16.336Z,12.72
2022-10-23T07:49:44.851Z,12.82
2022-10-23T07:52:13.026Z,12.88
2022-10-23T07:54:41.402Z,12.98
2022-10-23T07:57:27.234Z,13.04
2022-10-23T07:59:56.921Z,13.09
2022-10-23T08:02:26.892Z,13.12
2022-10-23T08:04:55.188Z,13.22
2022-10-23T08:07:26.052Z,13.13
2022-10-23T08:09:54.434Z,13.30
2022-10-23T08:12:22.814Z,13.34
2022-10-23T08:15:18.215Z,13.49
2022-10-23T08:17:46.498Z,13.52
2022-10-23T08:20:14.839Z,13.60
2022-10-23T08:22:56.381Z,13.67
2022-10-23T08:25:25.121Z,13.73
2022-10-23T08:28:12.784Z,13.82
2022-10-23T08:30:54.142Z,13.89
2022-10-23T08:33:24.742Z,13.98
2022-10-23T08:35:57.006Z,14.12
2022-10-23T08:38:28.911Z,14.14
2022-10-23T08:41:02.837Z,14.33
2022-10-23T08:43:37.571Z,14.43
2022-10-23T08:46:13.451Z,14.51
2022-10-23T08:48:49.109Z,14.66
2022-10-23T08:51:35.066Z,14.71
2022-10-23T08:54:13.063Z,14.86
2022-10-23T08:56:44.537Z,14.88
2022-10-23T08:59:20.979Z,15.00
2022-10-23T09:01:58.900Z,15.11
2022-10-23T09:04:31.732Z,15.18
2022-10-23T09:07:22.666Z,15.13
2022-10-23T09:10:09.914Z,15.33
2022-10-23T09:12:55.241Z,15.43
2022-10-23T09:15:29.678Z,15.53
2022-10-23T09:20:55.961Z,15.72
2022-10-23T09:23:26.181Z,15.80
2022-10-23T09:25:57.240Z,15.91
2022-10-23T09:28:41.538Z,15.99
2022-10-23T09:31:13.068Z,16.07
2022-10-23T09:33:43.516Z,16.17
2022-10-23T09:36:23.568Z,16.29
2022-10-23T09:39:03.567Z,16.40
2022-10-23T09:41:37.300Z,16.49
2022-10-23T09:44:22.183Z,16.46
2022-10-23T09:46:53.647Z,16.58
2022-10-23T09:49:30.341Z,16.65
2022-10-23T09:52:04.801Z,16.64
2022-10-23T09:54:46.283Z,16.65
2022-10-23T09:57:28.050Z,16.75
2022-10-23T10:00:12.004Z,16.77
2022-10-23T10:03:03.811Z,16.86
2022-10-23T10:05:37.375Z,17.00
2022-10-23T10:08:15.476Z,17.08
2022-10-23T10:10:49.446Z,17.12
2022-10-23T10:14:21.620Z,17.22
2022-10-23T10:16:54.731Z,17.32
2022-10-23T10:19:38.297Z,17.39
2022-10-23T10:22:40.717Z,17.41
2022-10-23T10:25:28.790Z,17.60
2022-10-23T10:28:21.236Z,17.68
2022-10-23T10:31:02.725Z,17.85
2022-10-23T10:33:37.632Z,17.91
2022-10-23T10:36:21.227Z,18.05
2022-10-23T10:39:03.776Z,18.11
2022-10-23T10:41:56.338Z,18.24
2022-10-23T10:44:48.352Z,18.41
2022-10-23T10:47:28.779Z,18.53
2022-10-23T10:50:11.804Z,18.60
2022-10-23T10:52:49.368Z,18.66
2022-10-23T10:55:31.974Z,18.66
2022-10-23T10:58:20.478Z,18.64
2022-10-23T11:01:09.858Z,18.71
2022-10-23T11:03:44.090Z,18.64
2022-10-23T11:06:18.354Z,18.79
2022-10-23T11:08:57.188Z,18.84
2022-10-23T11:11:36.298Z,18.93
2022-10-23T11:14:05.064Z,18.95
2022-10-23T11:16:37.978Z,19.09
2022-10-23T11:19:23.771Z,19.10
2022-10-23T11:22:03.981Z,19.15
2022-10-23T11:25:37.491Z,19.18
2022-10-23T11:28:27.907Z,19.16
2022-10-23T11:31:12.121Z,19.15
2022-10-23T11:34:32.113Z,19.15
2022-10-23T11:37:07.197Z,19.13
2022-10-23T11:39:37.706Z,19.18
2022-10-23T11:42:31.956Z,19.10
2022-10-23T11:45:01.997Z,19.08
2022-10-23T11:47:55.718Z,19.02
2022-10-23T11:50:35.614Z,19.07
2022-10-23T11:53:15.647Z,18.96
2022-10-23T11:56:00.746Z,19.02
2022-10-23T11:58:51.594Z,18.86
2022-10-23T12:01:45.574Z,18.86
2022-10-23T12:04:25.807Z,18.80
2022-10-23T12:06:57.575Z,18.94
2022-10-23T12:09:37.576Z,18.95
2022-10-23T12:12:26.646Z,19.01
2022-10-23T12:14:55.958Z,18.95
2022-10-23T12:18:10.213Z,19.01
2022-10-23T12:20:57.430Z,19.05
2022-10-23T12:24:04.800Z,19.08
2022-10-23T12:26:50.768Z,19.17
2022-10-23T12:30:02.914Z,19.14
2022-10-23T12:33:29.455Z,19.22
2022-10-23T12:36:39.619Z,19.31
2022-10-23T12:39:36.357Z,19.38
2022-10-23T12:45:39.980Z,19.40
2022-10-23T12:48:26.830Z,19.42
2022-10-23T12:50:57.036Z,19.40
2022-10-23T12:56:10.206Z,19.48
2022-10-23T12:58:39.282Z,19.50
2022-10-23T13:01:23.375Z,19.47
2022-10-23T13:03:52.618Z,19.42
2022-10-23T13:06:26.130Z,19.41
2022-10-23T13:08:56.452Z,19.42
2022-10-23T13:11:26.229Z,19.38
2022-10-23T13:13:55.122Z,19.41
2022-10-23T13:16:26.666Z,19.46
2022-10-23T13:18:55.255Z,19.48
2022-10-23T13:21:30.261Z,19.49
2022-10-23T13:24:01.424Z,19.43
2022-10-23T13:26:45.540Z,19.41
2022-10-23T13:29:22.369Z,19.41
2022-10-23T13:31:51.463Z,19.42
2022-10-23T13:34:30.760Z,19.35
2022-10-23T13:37:04.203Z,19.37
2022-10-23T13:39:36.066Z,19.34
2022-10-23T13:42:17.732Z,19.41
2022-10-23T13:44:46.216Z,19.37
2022-10-23T13:47:23.067Z,19.43
2022-10-23T13:49:55.525Z,19.34
2022-10-23T13:52:29.125Z,19.35
2022-10-23T13:54:58.878Z,19.28
2022-10-23T13:57:35.375Z,19.24
2022-10-23T14:00:07.257Z,19.21
2022-10-23T14:02:35.760Z,19.17
2022-10-23T14:05:07.136Z,19.14
2022-10-23T14:07:35.554Z,19.09
2022-10-23T14:10:06.666Z,19.06
2022-10-23T14:12:42.202Z,19.04
2022-10-23T14:15:23.614Z,18.95
2022-10-23T14:17:56.580Z,18.95
2022-10-23T14:20:28.084Z,18.90
2022-10-23T14:23:07.785Z,18.89
2022-10-23T14:28:24.376Z,18.79
2022-10-23T14:30:52.679Z,18.76
2022-10-23T14:33:21.009Z,18.69
2022-10-23T14:35:55.798Z,18.65
2022-10-23T14:38:24.138Z,18.65
2022-10-23T14:41:25.310Z,18.63
2022-10-23T14:44:05.253Z,18.54
2022-10-23T14:46:35.655Z,18.51
2022-10-23T14:49:18.903Z,18.47
2022-10-23T14:51:55.387Z,18.36
2022-10-23T14:54:25.159Z,18.45
2022-10-23T14:56:54.910Z,18.38
2022-10-23T14:59:24.713Z,18.39
2022-10-23T15:04:36.717Z,18.36
2022-10-23T15:07:08.394Z,18.36
2022-10-23T15:09:40.128Z,18.34
2022-10-23T15:12:20.237Z,18.37
2022-10-23T15:14:54.823Z,18.35
2022-10-23T15:17:25.119Z,18.34
2022-10-23T15:19:53.515Z,18.33
2022-10-23T15:22:23.206Z,18.28
2022-10-23T15:24:54.093Z,18.28
2022-10-23T15:27:26.004Z,18.22
2022-10-23T15:30:02.767Z,18.19
2022-10-23T15:32:48.081Z,18.15
2022-10-23T15:35:16.778Z,18.10
2022-10-23T15:37:45.448Z,18.04
2022-10-23T15:40:14.619Z,18.02
2022-10-23T15:43:09.531Z,17.91
2022-10-23T15:45:43.045Z,17.95
2022-10-23T15:48:21.848Z,17.89
2022-10-23T15:50:50.335Z,17.83
2022-10-23T15:53:18.876Z,17.86
2022-10-23T15:55:48.735Z,17.85
2022-10-23T16:01:06.955Z,17.72
2022-10-23T16:03:41.119Z,17.67
2022-10-23T16:06:20.955Z,17.59
2022-10-23T16:08:50.217Z,17.51
2022-10-23T16:11:25.872Z,17.46
2022-10-23T16:14:21.791Z,17.34
2022-10-23T16:16:50.161Z,17.22
2022-10-23T16:19:18.799Z,17.18
2022-10-23T16:21:48.696Z,17.14
2022-10-23T16:24:20.448Z,17.11
2022-10-23T16:26:53.192Z,17.14
2022-10-23T16:29:24.418Z,17.09
2022-10-23T16:31:53.677Z,16.99
2022-10-23T16:34:22.673Z,17.03
2022-10-23T16:36:52.619Z,17.01
2022-10-23T16:39:21.804Z,16.99
2022-10-23T16:41:50.264Z,16.94
2022-10-23T16:44:18.656Z,16.95
2022-10-23T16:46:48.849Z,16.92
2022-10-23T16:49:17.524Z,16.83
2022-10-23T16:51:47.231Z,16.84
2022-10-23T16:54:21.949Z,16.79
2022-10-23T16:56:50.356Z,16.77
2022-10-23T16:59:18.851Z,16.70
2022-10-23T17:01:55.644Z,16.65
2022-10-23T17:04:47.903Z,16.62
2022-10-23T17:07:16.405Z,16.52
2022-10-23T17:09:46.597Z,16.47
2022-10-23T17:12:15.260Z,16.41
2022-10-23T17:15:00.418Z,16.31
2022-10-23T17:17:30.234Z,16.23
2022-10-23T17:19:59.004Z,16.18
2022-10-23T17:22:38.061Z,16.25
2022-10-23T17:25:08.168Z,16.20
2022-10-23T17:27:45.968Z,16.21
2022-10-23T17:30:17.985Z,16.17
2022-10-23T17:33:01.045Z,16.21
2022-10-23T17:35:32.659Z,16.24
2022-10-23T17:38:01.266Z,16.21
2022-10-23T17:40:32.980Z,16.25
2022-10-23T17:43:09.553Z,16.15
2022-10-23T17:45:39.652Z,16.21
2022-10-23T17:48:10.105Z,16.22
2022-10-23T17:50:38.489Z,16.21
2022-10-23T17:53:15.363Z,16.21
2022-10-23T17:55:48.757Z,16.19
2022-10-23T17:58:17.117Z,16.20
2022-10-23T18:00:45.591Z,16.21
2022-10-23T18:03:19.701Z,16.27
2022-10-23T18:05:53.611Z,16.30
2022-10-23T18:08:21.948Z,16.31
2022-10-23T18:10:50.416Z,16.33
2022-10-23T18:13:18.768Z,16.35
2022-10-23T18:15:47.153Z,16.38
2022-10-23T18:18:24.661Z,16.38
2022-10-23T18:20:55.915Z,16.43
2022-10-23T18:23:27.054Z,16.47
2022-10-23T18:25:55.616Z,16.49
2022-10-23T18:28:24.345Z,16.51
2022-10-23T18:30:59.637Z,16.50
2022-10-23T18:33:29.503Z,16.52
2022-10-23T18:36:09.829Z,16.52
2022-10-23T18:41:24.368Z,16.47
2022-10-23T18:43:53.659Z,16.46
2022-10-23T18:46:30.564Z,16.47
2022-10-23T18:49:15.366Z,16.50
2022-10-23T18:51:43.750Z,16.52
2022-10-23T18:54:21.396Z,16.49
2022-10-23T18:57:08.627Z,16.52
2022-10-23T18:59:57.163Z,16.49
2022-10-23T19:02:25.559Z,16.51
2022-10-23T19:04:55.569Z,16.53
2022-10-23T19:07:25.279Z,16.53
2022-10-23T19:09:53.938Z,16.54
2022-10-23T19:12:39.137Z,16.56
2022-10-23T19:15:20.408Z,16.55
2022-10-23T19:21:31.087Z,16.54
2022-10-23T19:24:03.852Z,16.58
2022-10-23T19:29:27.773Z,16.57
2022-10-23T19:31:56.296Z,16.55
2022-10-23T19:34:45.210Z,16.57
2022-10-23T19:37:30.091Z,16.53
2022-10-23T19:39:58.743Z,16.60
2022-10-23T19:42:31.890Z,16.63
2022-10-23T19:45:00.377Z,16.65
2022-10-23T19:50:15.214Z,16.73
2022-10-23T19:53:08.963Z,16.74
2022-10-23T19:55:44.742Z,16.78
2022-10-23T19:58:13.139Z,16.81
2022-10-23T20:00:43.971Z,16.84
2022-10-23T20:03:12.224Z,16.88
2022-10-23T20:05:53.969Z,16.90
2022-10-23T20:08:45.193Z,16.98
2022-10-23T20:11:20.399Z,17.00
2022-10-23T20:13:53.682Z,17.03
2022-10-23T20:16:27.988Z,17.07
2022-10-23T20:18:57.040Z,17.07
2022-10-23T20:21:26.730Z,17.07
2022-10-23T20:23:58.062Z,17.15
2022-10-23T20:26:29.598Z,17.19
2022-10-23T20:28:58.588Z,17.23
2022-10-23T20:31:39.566Z,17.25
2022-10-23T20:34:10.306Z,17.27
2022-10-23T20:36:45.621Z,17.30
2022-10-23T20:39:19.853Z,17.31
2022-10-23T20:41:49.619Z,17.24
2022-10-23T20:44:19.530Z,17.32
2022-10-23T20:46:48.897Z,17.34
2022-10-23T20:49:18.182Z,17.33
2022-10-23T20:51:48.087Z,17.27
2022-10-23T20:54:20.181Z,17.35
2022-10-23T20:56:48.648Z,17.32
2022-10-23T20:59:19.464Z,17.27
2022-10-23T21:01:51.301Z,17.35
2022-10-23T21:04:23.409Z,17.32
2022-10-23T21:07:08.950Z,17.32
2022-10-23T21:09:39.966Z,17.33
2022-10-23T21:12:08.761Z,17.24
2022-10-23T21:17:23.437Z,17.34
2022-10-23T21:19:51.741Z,17.25
2022-10-23T21:22:20.233Z,17.33
2022-10-23T21:24:57.091Z,17.33
2022-10-23T21:27:28.432Z,17.32
2022-10-23T21:29:57.029Z,17.29
2022-10-23T21:32:25.408Z,17.25
2022-10-23T21:34:55.256Z,17.18
2022-10-23T21:37:25.627Z,17.12
2022-10-23T21:39:55.656Z,17.04
2022-10-23T21:42:24.062Z,16.99
2022-10-23T21:44:52.490Z,16.93
2022-10-23T21:47:35.186Z,16.91
2022-10-23T21:50:03.786Z,16.86
2022-10-23T21:52:43.600Z,16.84
2022-10-23T21:55:14.134Z,16.77
2022-10-23T21:57:42.479Z,16.72
2022-10-23T22:00:15.856Z,16.62
2022-10-23T22:02:44.761Z,16.63
2022-10-23T22:05:13.168Z,16.58
2022-10-23T22:07:41.687Z,16.56
2022-10-23T22:10:10.494Z,16.56
2022-10-23T22:12:41.634Z,16.53
2022-10-23T22:15:11.242Z,16.52
2022-10-23T22:17:42.753Z,16.51
2022-10-23T22:20:12.329Z,16.45
2022-10-23T22:22:40.726Z,16.42
2022-10-23T22:25:25.772Z,16.41
2022-10-23T22:27:57.364Z,16.35
2022-10-23T22:30:28.216Z,16.35
2022-10-23T22:32:57.154Z,16.33
2022-10-23T22:35:25.757Z,16.27
2022-10-23T22:37:55.342Z,16.23
2022-10-23T22:40:23.597Z,16.17
2022-10-23T22:43:06.219Z,16.15
2022-10-23T22:45:43.123Z,16.16
2022-10-23T22:48:22.118Z,16.13
2022-10-23T22:50:50.422Z,16.13
2022-10-23T22:53:24.957Z,16.17
2022-10-23T22:55:53.910Z,16.18
2022-10-23T22:58:22.462Z,16.20
2022-10-23T23:03:52.283Z,16.22
2022-10-23T23:06:26.062Z,16.22
2022-10-23T23:09:01.147Z,16.20
2022-10-23T23:11:37.104Z,16.19
2022-10-23T23:14:15.759Z,16.20
2022-10-23T23:16:47.488Z,16.20
2022-10-23T23:19:23.419Z,16.20
2022-10-23T23:21:55.740Z,16.21
2022-10-23T23:24:34.521Z,16.19
2022-10-23T23:27:03.011Z,16.07
2022-10-23T23:29:31.369Z,16.16
2022-10-23T23:32:01.152Z,16.15
2022-10-23T23:34:30.381Z,16.13
2022-10-23T23:36:59.378Z,16.17
2022-10-23T23:39:36.336Z,16.17
2022-10-23T23:42:04.917Z,16.14
2022-10-23T23:44:33.472Z,16.19
2022-10-23T23:47:04.343Z,16.22
2022-10-23T23:49:32.688Z,16.29
2022-10-23T23:52:00.993Z,16.32
2022-10-23T23:54:29.243Z,16.39
2022-10-23T23:56:59.023Z,16.37
2022-10-23T23:59:27.674Z,16.41
